Time;durP1;ratioP1;P1;durP2;ratioP2;P2;SDS_P1;SDS_P2;PMS_P1;PMS_P2;Temp;Humidity;BMP_temperature;BMP_pressure;BME280_temperature;BME280_humidity;BME280_pressure;Samples;Min_cycle;Max_cycle;Signal;HPM_P1;HPM_P2
2022/03/19 00:00:49;;;;;;;16.57;8.00;;;5.40;50.60;;;;;;5071436;28;20201;-76
2022/03/19 00:03:18;;;;;;;16.57;7.60;;;5.40;50.70;;;;;;5070698;28;20205;-75
2022/03/19 00:05:47;;;;;;;17.40;8.27;;;5.40;50.60;;;;;;5069291;28;20206;-74
2022/03/19 00:08:17;;;;;;;14.37;7.73;;;5.30;50.60;;;;;;5072233;28;20220;-75
2022/03/19 00:10:45;;;;;;;15.57;7.87;;;5.30;50.90;;;;;;5069821;28;20655;-74
2022/03/19 00:13:14;;;;;;;17.37;8.83;;;5.30;50.90;;;;;;5068443;28;20204;-76
2022/03/19 00:15:42;;;;;;;22.27;9.97;;;5.30;51.00;;;;;;5069653;28;20281;-74
2022/03/19 00:18:11;;;;;;;18.93;8.50;;;5.20;51.00;;;;;;5069322;28;20228;-74
2022/03/19 00:20:39;;;;;;;18.50;8.73;;;5.20;51.10;;;;;;5070315;28;20319;-74
2022/03/19 00:23:08;;;;;;;17.93;9.00;;;5.20;51.10;;;;;;5070804;28;20212;-74
2022/03/19 00:25:38;;;;;;;18.70;9.50;;;5.10;51.20;;;;;;5071422;28;20192;-75
2022/03/19 00:28:07;;;;;;;23.47;10.03;;;5.10;51.30;;;;;;5069619;28;20206;-74
2022/03/19 00:30:35;;;;;;;15.67;9.47;;;5.10;51.40;;;;;;5071386;28;20291;-74
2022/03/19 00:33:04;;;;;;;18.17;9.53;;;5.10;51.50;;;;;;5066003;28;20246;-74
2022/03/19 00:35:33;;;;;;;24.07;10.10;;;5.00;51.50;;;;;;5071145;28;20999;-76
2022/03/19 00:38:04;;;;;;;16.47;8.90;;;5.00;51.50;;;;;;5069182;28;20191;-74
2022/03/19 00:40:35;;;;;;;14.90;9.27;;;5.00;51.50;;;;;;5069536;28;20195;-74
2022/03/19 00:43:04;;;;;;;20.90;9.67;;;4.90;51.50;;;;;;5070006;28;20210;-73
2022/03/19 00:45:33;;;;;;;19.33;9.43;;;4.90;51.60;;;;;;5069483;28;20198;-74
2022/03/19 00:48:01;;;;;;;20.50;10.13;;;4.90;51.80;;;;;;5070901;28;20242;-73
2022/03/19 00:50:29;;;;;;;18.47;9.70;;;4.90;51.80;;;;;;5068430;28;20218;-74
2022/03/19 00:52:58;;;;;;;21.90;9.73;;;4.80;51.80;;;;;;5071332;28;20206;-74
2022/03/19 00:55:26;;;;;;;19.73;9.73;;;4.80;51.90;;;;;;5069192;28;20204;-74
2022/03/19 00:57:54;;;;;;;21.17;9.87;;;4.80;52.00;;;;;;5070093;28;20203;-75
2022/03/19 01:00:26;;;;;;;17.03;8.90;;;4.80;52.10;;;;;;5065482;28;20280;-74
2022/03/19 01:02:55;;;;;;;19.30;9.93;;;4.70;52.10;;;;;;5067321;28;20198;-75
2022/03/19 01:05:25;;;;;;;19.23;9.83;;;4.70;52.20;;;;;;5070112;28;20922;-74
2022/03/19 01:07:56;;;;;;;16.97;8.73;;;4.70;52.90;;;;;;5067377;28;20199;-76
2022/03/19 01:10:28;;;;;;;21.77;10.60;;;4.70;52.20;;;;;;5070653;28;20198;-74
2022/03/19 01:12:58;;;;;;;19.47;9.43;;;4.70;52.30;;;;;;5066789;28;20191;-75
2022/03/19 01:15:28;;;;;;;17.93;9.83;;;4.70;52.40;;;;;;5070456;28;20208;-75
2022/03/19 01:17:56;;;;;;;18.07;9.73;;;4.60;52.50;;;;;;5069301;28;20191;-74
2022/03/19 01:20:25;;;;;;;21.37;10.30;;;4.60;52.60;;;;;;5067935;28;20195;-75
2022/03/19 01:22:53;;;;;;;24.47;9.70;;;4.60;52.60;;;;;;5066322;28;20564;-75
2022/03/19 01:25:22;;;;;;;22.83;10.73;;;4.50;52.60;;;;;;5070551;28;20568;-74
2022/03/19 01:27:52;;;;;;;17.10;9.57;;;4.50;52.70;;;;;;5069198;28;20205;-74
2022/03/19 01:30:24;;;;;;;17.30;9.80;;;4.50;52.70;;;;;;5067617;28;20207;-74
2022/03/19 01:32:53;;;;;;;17.57;9.33;;;4.50;52.80;;;;;;5065858;28;20202;-75
2022/03/19 01:35:22;;;;;;;17.60;9.77;;;4.50;52.90;;;;;;5065355;28;20206;-73
2022/03/19 01:37:51;;;;;;;17.67;9.37;;;4.40;53.00;;;;;;5065777;28;20198;-74
2022/03/19 01:40:21;;;;;;;18.37;9.70;;;4.40;52.90;;;;;;5068084;28;20205;-74
2022/03/19 01:42:52;;;;;;;19.37;10.03;;;4.40;53.20;;;;;;5065039;28;20226;-74
2022/03/19 01:45:25;;;;;;;21.53;10.73;;;4.40;53.10;;;;;;5067642;28;20191;-74
2022/03/19 01:47:55;;;;;;;28.00;16.50;;;4.30;53.10;;;;;;5068210;28;20196;-74
2022/03/19 01:50:25;;;;;;;24.33;12.17;;;4.30;53.30;;;;;;5064757;28;20190;-77
2022/03/19 01:52:55;;;;;;;28.63;14.53;;;4.30;53.50;;;;;;5067414;28;20205;-74
2022/03/19 01:55:26;;;;;;;25.43;15.30;;;4.30;53.60;;;;;;5068890;28;20592;-75
2022/03/19 01:57:55;;;;;;;24.03;14.10;;;4.30;53.70;;;;;;5068188;28;20195;-74
2022/03/19 02:00:25;;;;;;;22.50;11.57;;;4.20;53.80;;;;;;5068930;28;20194;-74
2022/03/19 02:02:55;;;;;;;25.77;13.30;;;4.20;53.80;;;;;;5069482;28;20198;-74
2022/03/19 02:05:25;;;;;;;22.53;12.47;;;4.20;53.90;;;;;;5070689;28;20202;-75
2022/03/19 02:07:54;;;;;;;25.27;12.10;;;4.20;53.90;;;;;;5067348;28;20200;-74
2022/03/19 02:10:23;;;;;;;30.73;15.10;;;4.10;53.90;;;;;;5068756;28;20214;-76
2022/03/19 02:12:52;;;;;;;36.50;19.67;;;4.10;53.90;;;;;;5066736;28;20193;-74
2022/03/19 02:15:21;;;;;;;30.50;16.83;;;4.10;53.90;;;;;;5067457;28;20217;-74
2022/03/19 02:17:50;;;;;;;28.20;16.40;;;4.10;54.10;;;;;;5066941;28;20911;-74
2022/03/19 02:20:20;;;;;;;32.77;18.33;;;4.10;54.10;;;;;;5067136;28;20201;-73
2022/03/19 02:25:38;;;;;;;20.60;12.33;;;4.00;54.30;;;;;;5069297;28;20195;-75
2022/03/19 02:28:07;;;;;;;22.13;12.63;;;4.00;54.40;;;;;;5068158;28;20186;-75
2022/03/19 02:30:40;;;;;;;25.13;13.90;;;4.00;54.30;;;;;;5067730;28;20219;-75
2022/03/19 02:33:09;;;;;;;22.20;12.50;;;4.00;54.40;;;;;;5069704;28;20206;-75
2022/03/19 02:35:38;;;;;;;21.97;12.40;;;3.90;54.50;;;;;;5067256;28;20209;-76
2022/03/19 02:38:06;;;;;;;20.93;11.80;;;3.90;54.60;;;;;;5066981;28;20428;-75
2022/03/19 02:40:36;;;;;;;25.03;10.93;;;3.90;54.60;;;;;;5070441;28;20263;-75
2022/03/19 02:43:04;;;;;;;19.57;9.37;;;3.90;55.40;;;;;;5066783;28;21176;-75
2022/03/19 02:45:33;;;;;;;19.90;10.03;;;3.80;54.90;;;;;;5068374;28;20190;-75
2022/03/19 02:48:01;;;;;;;19.80;10.07;;;3.80;55.00;;;;;;5066633;28;20251;-75
2022/03/19 02:50:32;;;;;;;18.90;9.20;;;3.80;55.00;;;;;;5068742;28;20255;-75
2022/03/19 02:53:02;;;;;;;17.43;9.93;;;3.80;55.00;;;;;;5067661;28;20190;-76
2022/03/19 02:55:32;;;;;;;21.83;9.90;;;3.70;54.90;;;;;;5066659;28;20197;-75
2022/03/19 02:58:02;;;;;;;18.23;9.73;;;3.70;54.90;;;;;;5063315;28;20195;-75
2022/03/19 03:00:31;;;;;;;19.93;9.87;;;3.70;54.90;;;;;;5065216;28;20265;-76
2022/03/19 03:02:59;;;;;;;21.03;10.27;;;3.70;54.90;;;;;;5065819;28;20205;-74
2022/03/19 03:05:28;;;;;;;23.60;10.73;;;3.60;54.90;;;;;;5068035;28;20674;-74
2022/03/19 03:07:56;;;;;;;21.37;10.67;;;3.60;55.00;;;;;;5065557;28;21175;-74
2022/03/19 03:10:25;;;;;;;21.83;10.20;;;3.60;55.00;;;;;;5068335;28;20218;-74
2022/03/19 03:12:54;;;;;;;19.20;10.17;;;3.60;55.10;;;;;;5068274;28;20202;-75
2022/03/19 03:15:24;;;;;;;17.83;9.00;;;3.60;55.20;;;;;;5068208;28;20197;-74
2022/03/19 03:17:53;;;;;;;18.77;10.10;;;3.60;55.30;;;;;;5067664;28;20208;-76
2022/03/19 03:20:21;;;;;;;19.17;9.47;;;3.50;55.20;;;;;;5072865;28;20242;-73
2022/03/19 03:22:50;;;;;;;19.57;9.30;;;3.50;55.20;;;;;;5072012;28;20205;-73
2022/03/19 03:25:19;;;;;;;22.60;11.00;;;3.50;55.40;;;;;;5068828;28;20208;-73
2022/03/19 03:27:47;;;;;;;18.07;9.90;;;3.50;55.30;;;;;;5066711;28;20197;-74
2022/03/19 03:30:18;;;;;;;22.00;9.83;;;3.40;55.30;;;;;;5071138;28;20251;-74
2022/03/19 03:32:48;;;;;;;21.47;9.93;;;3.50;55.60;;;;;;5071502;28;20245;-74
2022/03/19 03:35:17;;;;;;;19.23;10.40;;;3.40;55.70;;;;;;5072596;28;20215;-73
2022/03/19 03:37:45;;;;;;;22.13;11.27;;;3.40;55.70;;;;;;5073543;28;20200;-73
2022/03/19 03:40:14;;;;;;;20.53;9.10;;;3.40;55.70;;;;;;5071064;28;20196;-73
2022/03/19 03:42:42;;;;;;;22.07;10.07;;;3.30;55.60;;;;;;5070369;28;20783;-74
2022/03/19 03:45:11;;;;;;;20.93;9.93;;;3.30;55.70;;;;;;5070109;28;20204;-75
2022/03/19 03:47:40;;;;;;;17.97;9.53;;;3.30;56.90;;;;;;5071780;28;20204;-73
2022/03/19 03:50:11;;;;;;;17.93;8.90;;;3.30;56.20;;;;;;5070303;28;20220;-74
2022/03/19 03:52:39;;;;;;;19.20;9.93;;;3.30;56.50;;;;;;5072311;28;20196;-73
2022/03/19 03:55:09;;;;;;;20.20;9.47;;;3.20;56.50;;;;;;5068825;28;20196;-73
2022/03/19 03:57:37;;;;;;;22.27;11.23;;;3.20;56.40;;;;;;5068419;28;20201;-74
2022/03/19 04:00:08;;;;;;;21.50;10.57;;;3.20;56.50;;;;;;5066038;28;20686;-74
2022/03/19 04:02:37;;;;;;;19.03;9.87;;;3.20;56.50;;;;;;5070954;28;20211;-74
2022/03/19 04:05:07;;;;;;;23.50;10.40;;;3.20;57.00;;;;;;5070943;28;20200;-74
2022/03/19 04:07:37;;;;;;;22.40;10.90;;;3.10;57.00;;;;;;5070982;28;20211;-74
2022/03/19 04:10:06;;;;;;;22.53;11.13;;;3.10;56.90;;;;;;5069755;28;21009;-74
2022/03/19 04:12:35;;;;;;;20.70;11.27;;;3.10;57.00;;;;;;5070456;28;20201;-73
2022/03/19 04:15:04;;;;;;;19.77;10.30;;;3.10;57.10;;;;;;5071828;28;20207;-74
2022/03/19 04:17:33;;;;;;;20.77;10.60;;;3.10;57.70;;;;;;5067720;28;20765;-74
2022/03/19 04:20:03;;;;;;;21.53;10.27;;;3.10;57.50;;;;;;5070646;28;20201;-73
2022/03/19 04:22:37;;;;;;;25.27;10.77;;;3.10;57.30;;;;;;5070071;28;20205;-73
2022/03/19 04:25:11;;;;;;;19.13;11.37;;;3.20;57.30;;;;;;5069246;28;20219;-74
2022/03/19 04:27:40;;;;;;;20.73;11.90;;;3.10;57.40;;;;;;5068914;28;20201;-74
2022/03/19 04:30:12;;;;;;;22.20;11.47;;;3.10;57.60;;;;;;5064767;28;20241;-73
2022/03/19 04:32:42;;;;;;;25.17;10.37;;;3.20;57.40;;;;;;5064671;28;20297;-74
2022/03/19 04:38:01;;;;;;;20.40;9.80;;;3.20;57.30;;;;;;5069203;28;20200;-74
2022/03/19 04:40:30;;;;;;;21.70;10.90;;;3.20;57.30;;;;;;5071433;28;20193;-74
2022/03/19 04:42:59;;;;;;;22.77;11.43;;;3.20;57.20;;;;;;5067630;28;20232;-73
2022/03/19 04:45:28;;;;;;;22.33;11.10;;;3.20;57.30;;;;;;5070768;28;20199;-74
2022/03/19 04:47:56;;;;;;;24.53;11.47;;;3.20;57.20;;;;;;5068312;28;20198;-74
2022/03/19 04:50:25;;;;;;;21.40;10.57;;;3.30;57.20;;;;;;5070243;28;20660;-74
2022/03/19 04:52:55;;;;;;;20.23;10.07;;;3.30;57.10;;;;;;5072080;28;20196;-74
2022/03/19 04:55:25;;;;;;;21.77;10.17;;;3.40;57.20;;;;;;5069779;28;20212;-74
2022/03/19 04:57:53;;;;;;;20.97;10.10;;;3.40;57.20;;;;;;5069860;28;20353;-74
2022/03/19 05:00:21;;;;;;;22.57;10.23;;;3.40;57.10;;;;;;5066798;28;20222;-74
2022/03/19 05:02:52;;;;;;;21.47;10.40;;;3.40;57.10;;;;;;5067641;28;20204;-74
2022/03/19 05:05:24;;;;;;;22.37;10.13;;;3.50;57.10;;;;;;5066786;28;20610;-74
2022/03/19 05:07:53;;;;;;;23.73;10.83;;;3.50;57.00;;;;;;5069764;28;20209;-73
2022/03/19 05:13:10;;;;;;;23.37;10.13;;;3.60;57.10;;;;;;5068487;28;20197;-74
2022/03/19 05:15:39;;;;;;;22.57;11.30;;;3.60;57.00;;;;;;5065495;28;20202;-75
2022/03/19 05:18:08;;;;;;;27.50;11.43;;;3.60;57.10;;;;;;5067979;28;20372;-74
2022/03/19 05:20:36;;;;;;;21.27;10.90;;;3.70;57.00;;;;;;5069747;28;20200;-74
2022/03/19 05:23:06;;;;;;;20.23;11.10;;;3.70;57.10;;;;;;5068935;28;20281;-74
2022/03/19 05:25:36;;;;;;;24.80;10.53;;;3.70;57.10;;;;;;5065795;28;20204;-75
2022/03/19 05:28:05;;;;;;;22.50;10.60;;;3.70;57.00;;;;;;5069670;28;20208;-75
2022/03/19 05:30:51;;;;;;;22.93;9.37;;;3.80;57.20;;;;;;5071649;28;20300;-74
2022/03/19 05:34:29;;;;;;;19.30;9.93;;;3.80;57.50;;;;;;5068715;28;20222;-73
2022/03/19 05:36:08;;;;;;;21.43;10.37;;;3.90;57.50;;;;;;5069918;28;20193;-76
2022/03/19 05:38:37;;;;;;;22.13;9.80;;;3.90;57.60;;;;;;5067956;28;20833;-74
2022/03/19 05:41:07;;;;;;;19.13;9.40;;;3.90;57.50;;;;;;5068684;28;20194;-74
2022/03/19 05:43:35;;;;;;;19.53;10.00;;;4.00;57.50;;;;;;5068589;28;20223;-74
2022/03/19 05:46:04;;;;;;;21.10;9.93;;;4.10;57.60;;;;;;5070891;28;20199;-74
2022/03/19 05:48:32;;;;;;;20.97;9.93;;;4.10;57.60;;;;;;5069197;28;20194;-74
2022/03/19 05:51:01;;;;;;;19.90;8.60;;;4.20;57.60;;;;;;5069012;28;20217;-74
2022/03/19 05:53:36;;;;;;;16.33;9.17;;;4.20;57.40;;;;;;5069078;28;20198;-75
2022/03/19 05:56:06;;;;;;;19.97;10.23;;;4.30;57.30;;;;;;5068256;28;20197;-74
2022/03/19 05:58:34;;;;;;;22.47;11.03;;;4.30;57.40;;;;;;5071342;28;20769;-75
2022/03/19 06:01:02;;;;;;;25.20;11.70;;;4.30;57.30;;;;;;5069642;28;20194;-75
2022/03/19 06:03:31;;;;;;;28.73;13.63;;;4.30;57.50;;;;;;5068255;28;20189;-75
2022/03/19 06:05:59;;;;;;;28.00;12.73;;;4.40;57.80;;;;;;5069829;28;20193;-76
2022/03/19 06:08:27;;;;;;;21.40;10.60;;;4.40;57.90;;;;;;5068123;28;20193;-75
2022/03/19 06:10:56;;;;;;;24.73;12.07;;;4.50;57.80;;;;;;5069781;28;20218;-75
2022/03/19 06:13:26;;;;;;;14.33;7.73;;;4.50;57.80;;;;;;5067593;28;20579;-75
2022/03/19 06:15:55;;;;;;;13.67;7.40;;;4.50;57.40;;;;;;5069388;28;20221;-75
2022/03/19 06:18:23;;;;;;;14.57;7.50;;;4.60;56.90;;;;;;5070003;28;20202;-75
2022/03/19 06:20:51;;;;;;;14.03;7.77;;;4.60;56.40;;;;;;5068327;28;20199;-75
2022/03/19 06:23:20;;;;;;;12.97;7.57;;;4.70;56.20;;;;;;5068185;28;20751;-75
2022/03/19 06:25:48;;;;;;;15.57;7.43;;;4.70;56.10;;;;;;5071022;28;20855;-76
2022/03/19 06:28:16;;;;;;;14.13;7.47;;;4.80;55.40;;;;;;5068383;28;20194;-75
2022/03/19 06:30:46;;;;;;;14.93;8.27;;;4.80;55.20;;;;;;5068578;28;20194;-76
2022/03/19 06:33:18;;;;;;;11.67;6.50;;;4.80;55.10;;;;;;5070157;28;20198;-76
2022/03/19 06:38:37;;;;;;;13.80;6.67;;;5.00;54.90;;;;;;5067929;28;21130;-75
2022/03/19 06:41:06;;;;;;;10.50;6.33;;;5.10;54.70;;;;;;5070842;28;20184;-76
2022/03/19 06:43:34;;;;;;;12.60;6.60;;;5.10;54.50;;;;;;5069674;28;20759;-76
2022/03/19 06:46:04;;;;;;;11.77;5.93;;;5.10;54.20;;;;;;5069485;28;20197;-75
2022/03/19 06:48:32;;;;;;;10.10;5.63;;;5.20;54.00;;;;;;5071116;28;20280;-75
2022/03/19 06:51:01;;;;;;;10.10;5.77;;;5.30;53.70;;;;;;5070955;28;20240;-76
2022/03/19 06:53:29;;;;;;;10.80;6.63;;;5.40;53.50;;;;;;5068905;28;20215;-76
2022/03/19 06:55:57;;;;;;;13.20;6.60;;;5.50;53.70;;;;;;5071879;28;20194;-76
2022/03/19 06:58:26;;;;;;;13.50;7.17;;;5.60;53.60;;;;;;5071795;28;20703;-75
2022/03/19 07:00:54;;;;;;;12.13;6.73;;;5.70;53.60;;;;;;5070947;28;20206;-75
2022/03/19 07:03:25;;;;;;;12.60;6.67;;;5.70;53.90;;;;;;5071956;28;20240;-75
2022/03/19 07:05:53;;;;;;;12.70;7.20;;;5.90;54.00;;;;;;5072884;28;20327;-76
2022/03/19 07:08:42;;;;;;;11.60;6.97;;;5.90;54.40;;;;;;5069765;28;20238;-75
2022/03/19 07:11:10;;;;;;;15.13;7.17;;;6.00;53.60;;;;;;5069760;28;20224;-75
2022/03/19 07:13:39;;;;;;;11.37;5.87;;;6.10;53.50;;;;;;5069340;28;20566;-76
2022/03/19 07:16:07;;;;;;;13.33;6.40;;;6.20;53.40;;;;;;5070321;28;20232;-75
2022/03/19 07:18:37;;;;;;;11.87;5.90;;;6.30;52.80;;;;;;5067467;28;20204;-74
2022/03/19 07:21:05;;;;;;;11.70;6.40;;;6.30;51.10;;;;;;5067462;28;20195;-74
2022/03/19 07:23:34;;;;;;;10.90;6.40;;;6.30;51.40;;;;;;5066333;28;20198;-75
2022/03/19 07:26:02;;;;;;;11.77;5.97;;;6.40;51.60;;;;;;5069192;28;20266;-74
2022/03/19 07:28:31;;;;;;;10.80;6.00;;;6.40;51.70;;;;;;5068012;28;20200;-74
2022/03/19 07:31:00;;;;;;;11.37;5.80;;;6.50;51.90;;;;;;5068582;28;20201;-76
2022/03/19 07:33:33;;;;;;;9.63;5.40;;;6.60;51.80;;;;;;5068069;28;20200;-76
2022/03/19 07:36:05;;;;;;;11.27;5.10;;;6.60;51.10;;;;;;5068394;28;20690;-74
2022/03/19 07:38:33;;;;;;;10.70;5.27;;;6.60;51.20;;;;;;5066668;28;20196;-75
2022/03/19 07:43:47;;;;;;;9.23;4.43;;;6.80;51.30;;;;;;5068349;28;20230;-76
2022/03/19 07:46:16;;;;;;;8.90;4.70;;;6.80;51.00;;;;;;5067005;28;20205;-76
2022/03/19 07:48:44;;;;;;;13.50;5.37;;;6.80;51.00;;;;;;5067892;28;20206;-76
2022/03/19 07:51:14;;;;;;;13.50;5.63;;;6.80;51.30;;;;;;5065853;28;20201;-77
2022/03/19 07:53:42;;;;;;;11.53;5.30;;;6.90;51.20;;;;;;5070010;28;20626;-76
2022/03/19 07:56:11;;;;;;;9.97;4.93;;;6.90;51.00;;;;;;5068405;28;20197;-76
2022/03/19 07:58:40;;;;;;;10.70;5.40;;;7.00;50.80;;;;;;5068695;28;20814;-76
2022/03/19 08:01:08;;;;;;;14.37;4.87;;;7.00;50.70;;;;;;5070139;28;20686;-76
2022/03/19 08:03:37;;;;;;;8.00;4.77;;;7.00;50.40;;;;;;5067947;28;20282;-75
2022/03/19 08:06:06;;;;;;;13.77;5.10;;;7.00;50.30;;;;;;5070117;28;20854;-77
2022/03/19 08:08:37;;;;;;;8.97;4.40;;;7.10;50.20;;;;;;5071262;28;20293;-76
2022/03/19 08:11:07;;;;;;;8.80;4.10;;;7.20;50.20;;;;;;5071915;28;20243;-75
2022/03/19 08:13:35;;;;;;;12.53;5.07;;;7.30;50.30;;;;;;5073686;28;20217;-75
2022/03/19 08:16:04;;;;;;;10.17;4.97;;;7.40;50.60;;;;;;5073334;28;20317;-75
2022/03/19 08:18:34;;;;;;;9.87;4.73;;;7.50;50.30;;;;;;5071508;28;20200;-75
2022/03/19 08:21:02;;;;;;;10.67;4.50;;;7.40;49.10;;;;;;5071834;28;20280;-75
2022/03/19 08:23:30;;;;;;;10.00;4.17;;;7.50;49.20;;;;;;5071889;28;20187;-77
2022/03/19 08:26:01;;;;;;;8.40;4.57;;;7.60;49.40;;;;;;5072191;28;20197;-77
2022/03/19 08:28:30;;;;;;;9.43;4.80;;;7.70;49.20;;;;;;5070342;28;20195;-77
2022/03/19 08:30:58;;;;;;;9.47;4.50;;;7.80;49.00;;;;;;5070685;28;20205;-75
2022/03/19 08:33:27;;;;;;;8.80;4.70;;;7.80;47.90;;;;;;5074215;28;20215;-76
2022/03/19 08:35:56;;;;;;;8.40;4.37;;;7.90;48.20;;;;;;5070819;28;20197;-77
2022/03/19 08:41:13;;;;;;;8.67;4.70;;;8.00;48.10;;;;;;5071020;28;20477;-76
2022/03/19 08:43:44;;;;;;;9.30;4.60;;;8.00;47.50;;;;;;5070349;28;20218;-77
2022/03/19 08:46:12;;;;;;;9.60;4.03;;;8.00;47.00;;;;;;5072234;28;20197;-76
2022/03/19 08:48:41;;;;;;;9.93;4.17;;;8.00;47.00;;;;;;5070490;28;20207;-77
2022/03/19 08:53:55;;;;;;;7.60;4.33;;;8.10;47.10;;;;;;5071654;28;20215;-76
2022/03/19 08:56:24;;;;;;;9.27;3.60;;;8.00;46.50;;;;;;5070097;28;20194;-76
2022/03/19 08:58:53;;;;;;;6.27;3.43;;;8.10;46.60;;;;;;5072262;28;20202;-76
2022/03/19 09:01:21;;;;;;;7.80;3.67;;;8.00;46.50;;;;;;5073108;28;20203;-76
2022/03/19 09:03:50;;;;;;;7.10;3.47;;;8.00;46.10;;;;;;5070162;28;20691;-76
2022/03/19 09:06:19;;;;;;;6.90;4.00;;;8.10;46.80;;;;;;5070767;28;20198;-76
2022/03/19 09:08:49;;;;;;;7.50;4.00;;;8.10;46.70;;;;;;5070863;28;20206;-77
2022/03/19 09:11:18;;;;;;;11.27;3.23;;;8.10;46.50;;;;;;5071290;28;20206;-76
2022/03/19 09:13:49;;;;;;;6.93;3.60;;;8.20;46.90;;;;;;5072148;28;20219;-77
2022/03/19 09:16:19;;;;;;;6.20;3.07;;;8.20;46.80;;;;;;5070678;28;20289;-79
2022/03/19 09:18:49;;;;;;;10.20;3.60;;;8.30;47.50;;;;;;5070823;28;20202;-78
2022/03/19 09:21:18;;;;;;;5.70;3.20;;;8.40;46.80;;;;;;5071288;28;20190;-77
2022/03/19 09:23:49;;;;;;;7.80;3.47;;;8.50;46.50;;;;;;5070088;28;20205;-79
2022/03/19 09:26:17;;;;;;;6.60;3.63;;;8.50;45.90;;;;;;5070097;28;20193;-77
2022/03/19 09:28:47;;;;;;;9.30;4.00;;;8.60;46.20;;;;;;5070570;28;20204;-77
2022/03/19 09:31:16;;;;;;;7.63;3.40;;;8.60;45.80;;;;;;5070391;28;20876;-77
2022/03/19 09:33:46;;;;;;;8.27;4.07;;;8.60;45.80;;;;;;5069358;28;20319;-78
2022/03/19 09:36:15;;;;;;;7.37;3.60;;;8.70;45.80;;;;;;5067525;28;20207;-73
2022/03/19 09:38:44;;;;;;;6.97;3.77;;;8.80;45.60;;;;;;5069697;28;20196;-75
2022/03/19 09:41:12;;;;;;;7.70;3.53;;;8.80;45.70;;;;;;5066539;28;20204;-75
2022/03/19 09:44:32;;;;;;;8.17;3.97;;;8.80;45.80;;;;;;5071103;28;20224;-75
2022/03/19 09:47:02;;;;;;;8.73;3.80;;;8.80;44.70;;;;;;5048228;28;20669;-74
2022/03/19 09:49:31;;;;;;;6.70;4.00;;;8.80;44.50;;;;;;5070496;28;20205;-74
2022/03/19 09:52:02;;;;;;;6.90;3.87;;;8.80;44.40;;;;;;5068833;28;20201;-76
2022/03/19 09:54:30;;;;;;;6.93;3.70;;;8.80;44.70;;;;;;5068532;28;20315;-76
2022/03/19 09:56:59;;;;;;;9.03;3.73;;;8.90;44.90;;;;;;5069073;28;20204;-75
2022/03/19 09:59:28;;;;;;;6.77;4.10;;;8.90;44.70;;;;;;5070096;28;20671;-75
2022/03/19 10:01:57;;;;;;;8.67;3.50;;;8.90;44.20;;;;;;5066955;28;20220;-76
2022/03/19 10:04:31;;;;;;;6.90;3.47;;;9.00;44.50;;;;;;5069158;28;20195;-77
2022/03/19 10:09:48;;;;;;;9.10;3.53;;;9.20;44.60;;;;;;5067253;28;20287;-77
2022/03/19 10:12:20;;;;;;;7.93;3.60;;;9.10;43.60;;;;;;5069782;28;20197;-74
2022/03/19 10:14:53;;;;;;;7.67;3.90;;;9.10;43.40;;;;;;5070755;28;20208;-75
2022/03/19 10:17:30;;;;;;;5.93;3.50;;;9.10;43.80;;;;;;5068534;28;20221;-74
2022/03/19 10:20:02;;;;;;;9.03;4.00;;;9.10;44.00;;;;;;5067033;28;20196;-76
2022/03/19 10:22:32;;;;;;;7.17;3.07;;;9.20;44.20;;;;;;5068470;28;20285;-76
2022/03/19 10:25:02;;;;;;;5.77;3.00;;;9.30;44.20;;;;;;5068122;28;20197;-76
2022/03/19 10:27:35;;;;;;;7.30;2.73;;;9.40;44.40;;;;;;5068362;28;20202;-76
2022/03/19 10:30:10;;;;;;;5.53;3.03;;;9.40;43.90;;;;;;5068092;28;20205;-76
2022/03/19 10:32:40;;;;;;;5.93;3.20;;;9.40;43.00;;;;;;5068557;28;20696;-76
2022/03/19 10:35:26;;;;;;;8.03;3.10;;;9.60;43.30;;;;;;5068824;28;20197;-77
2022/03/19 10:37:55;;;;;;;9.13;2.90;;;9.70;43.80;;;;;;5069123;28;20212;-78
2022/03/19 10:40:36;;;;;;;7.57;3.27;;;9.70;43.00;;;;;;5065027;28;20778;-79
2022/03/19 10:43:07;;;;;;;5.23;3.20;;;9.80;42.40;;;;;;5070557;28;20227;-77
2022/03/19 10:45:43;;;;;;;7.80;3.40;;;9.80;42.30;;;;;;5073039;28;20197;-76
2022/03/19 10:50:57;;;;;;;7.43;3.40;;;9.90;42.80;;;;;;5071897;28;20292;-78
2022/03/19 10:53:34;;;;;;;5.63;3.37;;;10.00;43.10;;;;;;5073129;28;20198;-77
2022/03/19 10:56:06;;;;;;;5.70;3.37;;;10.10;43.10;;;;;;5072296;28;20319;-77
2022/03/19 10:58:46;;;;;;;7.30;3.73;;;10.20;42.80;;;;;;5072292;28;20849;-76
2022/03/19 11:01:16;;;;;;;6.43;2.77;;;10.20;41.50;;;;;;5071985;28;20233;-77
2022/03/19 11:03:46;;;;;;;6.40;3.47;;;10.30;42.00;;;;;;5073114;28;20846;-79
2022/03/19 11:06:22;;;;;;;8.83;2.80;;;10.40;41.80;;;;;;5071251;28;20185;-77
2022/03/19 11:08:52;;;;;;;5.37;3.17;;;10.50;41.90;;;;;;5072322;28;20229;-77
2022/03/19 11:11:27;;;;;;;6.00;3.13;;;10.60;42.00;;;;;;5072418;28;20201;-79
2022/03/19 11:13:58;;;;;;;6.50;3.07;;;10.70;41.50;;;;;;5072761;28;20229;-77
2022/03/19 11:16:31;;;;;;;9.57;2.93;;;10.80;41.40;;;;;;5072503;28;20563;-77
2022/03/19 11:19:01;;;;;;;5.57;2.90;;;11.00;41.60;;;;;;5072587;28;20709;-77
2022/03/19 11:21:32;;;;;;;5.33;3.00;;;11.10;41.80;;;;;;5071146;28;20639;-77
2022/03/19 11:24:09;;;;;;;6.17;2.90;;;11.20;41.70;;;;;;5070639;28;20212;-78
2022/03/19 11:26:38;;;;;;;5.37;2.57;;;11.20;41.90;;;;;;5071674;28;20569;-77
2022/03/19 11:29:07;;;;;;;4.63;2.60;;;11.30;42.20;;;;;;5070904;28;20659;-78
2022/03/19 11:31:38;;;;;;;6.47;2.67;;;11.50;41.80;;;;;;5071353;28;20208;-78
2022/03/19 11:34:19;;;;;;;5.07;2.63;;;11.60;42.30;;;;;;5070974;28;20218;-77
2022/03/19 11:36:59;;;;;;;4.93;2.30;;;11.60;42.00;;;;;;5070032;28;20193;-78
2022/03/19 11:39:28;;;;;;;4.93;2.47;;;11.60;41.30;;;;;;5072519;28;20230;-78
2022/03/19 11:41:56;;;;;;;6.43;2.90;;;11.60;41.10;;;;;;5075877;28;20316;-77
2022/03/19 11:44:27;;;;;;;4.23;2.20;;;11.70;41.30;;;;;;5075528;28;20230;-78
2022/03/19 11:47:00;;;;;;;7.60;2.40;;;11.80;41.60;;;;;;5076432;28;20849;-77
2022/03/19 11:49:49;;;;;;;6.17;2.70;;;11.80;41.50;;;;;;5075267;28;20194;-77
2022/03/19 11:52:53;;;;;;;5.67;2.83;;;11.70;40.40;;;;;;5073829;28;20186;-79
2022/03/19 11:55:29;;;;;;;6.50;2.90;;;11.70;40.60;;;;;;5073899;28;20818;-79
2022/03/19 11:58:02;;;;;;;4.77;2.63;;;11.80;40.60;;;;;;5074413;28;20188;-78
2022/03/19 12:00:33;;;;;;;8.67;3.30;;;11.90;41.00;;;;;;5075580;28;20212;-77
2022/03/19 12:03:07;;;;;;;5.90;3.20;;;11.80;40.00;;;;;;5073884;28;20190;-77
2022/03/19 12:05:38;;;;;;;5.17;2.83;;;11.80;40.00;;;;;;5075120;28;20201;-78
2022/03/19 12:08:09;;;;;;;5.50;3.10;;;11.90;40.50;;;;;;5071035;28;20202;-77
2022/03/19 12:10:59;;;;;;;6.07;3.17;;;11.90;40.90;;;;;;5074230;28;20193;-78
2022/03/19 12:13:43;;;;;;;6.37;3.27;;;11.80;40.30;;;;;;5074885;28;20288;-76
2022/03/19 12:16:12;;;;;;;12.47;4.80;;;11.70;40.10;;;;;;5074648;28;20197;-77
2022/03/19 12:18:46;;;;;;;4.57;2.63;;;11.70;39.60;;;;;;5074360;28;20756;-77
2022/03/19 12:21:21;;;;;;;7.50;3.20;;;11.70;40.20;;;;;;5074971;28;20186;-77
2022/03/19 12:24:09;;;;;;;6.40;3.80;;;11.90;40.50;;;;;;5076366;28;20194;-77
2022/03/19 12:26:39;;;;;;;6.87;3.50;;;11.90;40.70;;;;;;5075210;28;20198;-77
2022/03/19 12:29:09;;;;;;;5.90;3.17;;;12.00;40.70;;;;;;5074277;28;20213;-76
2022/03/19 12:31:42;;;;;;;8.00;3.33;;;12.00;39.60;;;;;;5076204;28;20194;-77
2022/03/19 12:34:15;;;;;;;6.17;2.90;;;12.10;39.60;;;;;;5074198;28;20219;-78
2022/03/19 12:36:44;;;;;;;7.17;3.50;;;12.20;39.40;;;;;;5074003;28;20200;-77
2022/03/19 12:39:14;;;;;;;7.73;3.10;;;12.20;39.90;;;;;;5075239;28;20224;-77
2022/03/19 12:41:44;;;;;;;6.07;2.80;;;12.20;39.80;;;;;;5075848;28;20201;-77
2022/03/19 12:44:36;;;;;;;6.30;3.00;;;12.20;39.70;;;;;;5070394;28;20274;-77
2022/03/19 12:47:06;;;;;;;7.93;3.37;;;12.20;39.80;;;;;;5069685;28;20189;-76
2022/03/19 12:49:35;;;;;;;4.93;2.97;;;12.20;39.40;;;;;;5072764;28;20953;-77
2022/03/19 12:52:08;;;;;;;7.93;3.43;;;12.40;39.40;;;;;;5067670;28;20313;-77
2022/03/19 12:54:45;;;;;;;6.97;2.83;;;12.30;39.30;;;;;;5071267;28;20210;-76
2022/03/19 12:57:14;;;;;;;5.87;2.77;;;12.10;38.80;;;;;;5070306;28;20200;-76
2022/03/19 12:59:51;;;;;;;4.83;2.83;;;12.10;38.70;;;;;;5070198;28;20217;-76
2022/03/19 13:02:19;;;;;;;5.37;2.70;;;12.30;38.80;;;;;;5073674;28;20775;-77
2022/03/19 13:04:48;;;;;;;5.20;2.63;;;12.40;38.80;;;;;;5073396;28;20195;-76
2022/03/19 13:07:18;;;;;;;6.87;3.40;;;12.60;38.80;;;;;;5072138;28;20193;-77
2022/03/19 13:09:48;;;;;;;4.10;2.60;;;12.80;39.10;;;;;;5072941;28;20204;-75
2022/03/19 13:12:18;;;;;;;7.57;3.80;;;13.00;38.80;;;;;;5072948;28;20198;-77
2022/03/19 13:14:51;;;;;;;7.00;3.33;;;13.10;38.20;;;;;;5069450;28;20225;-77
2022/03/19 13:17:21;;;;;;;4.73;3.00;;;13.30;38.50;;;;;;5072651;28;20189;-76
2022/03/19 13:19:50;;;;;;;4.27;2.87;;;13.50;38.70;;;;;;5072852;28;20201;-76
2022/03/19 13:22:20;;;;;;;8.87;3.30;;;13.70;37.90;;;;;;5070343;28;20852;-76
2022/03/19 13:24:55;;;;;;;8.03;3.40;;;14.00;37.40;;;;;;5069577;28;20187;-76
2022/03/19 13:27:27;;;;;;;6.17;3.27;;;14.30;38.10;;;;;;5070234;28;20202;-76